createdAt,value
2023-02-19T00:01:52.450Z,8.13
2023-02-19T00:04:22.603Z,14.00
2023-02-19T00:06:50.835Z,14.30
2023-02-19T00:09:20.231Z,15.87
2023-02-19T00:11:48.322Z,14.50
2023-02-19T00:14:19.519Z,13.57
2023-02-19T00:16:48.196Z,14.80
2023-02-19T00:19:19.816Z,14.17
2023-02-19T00:21:52.083Z,16.07
2023-02-19T00:24:21.659Z,17.33
2023-02-19T00:26:49.722Z,18.60
2023-02-19T00:29:20.280Z,18.83
2023-02-19T00:31:49.037Z,11.63
2023-02-19T00:34:16.917Z,20.40
2023-02-19T00:36:44.815Z,21.03
2023-02-19T00:39:18.178Z,20.63
2023-02-19T00:41:46.535Z,20.43
2023-02-19T00:44:15.219Z,21.77
2023-02-19T00:46:46.036Z,21.27
2023-02-19T00:49:18.818Z,22.90
2023-02-19T00:51:47.526Z,21.03
2023-02-19T00:54:17.647Z,20.70
2023-02-19T00:56:46.121Z,21.47
2023-02-19T00:59:14.771Z,20.67
2023-02-19T01:01:47.388Z,22.83
2023-02-19T01:04:16.345Z,22.03
2023-02-19T01:06:44.456Z,22.50
2023-02-19T01:09:12.303Z,19.97
2023-02-19T01:11:41.532Z,20.27
2023-02-19T01:14:10.547Z,20.47
2023-02-19T01:16:38.458Z,17.43
2023-02-19T01:19:06.339Z,18.67
2023-02-19T01:21:34.265Z,17.10
2023-02-19T01:24:02.059Z,15.67
2023-02-19T01:26:32.780Z,16.73
2023-02-19T01:29:03.116Z,21.47
2023-02-19T01:31:32.681Z,23.63
2023-02-19T01:34:04.583Z,23.33
2023-02-19T01:36:34.259Z,23.10
2023-02-19T01:39:05.073Z,18.77
2023-02-19T01:41:39.445Z,25.97
2023-02-19T01:45:05.946Z,25.43
2023-02-19T01:47:33.963Z,25.30
2023-02-19T01:50:01.905Z,26.00
2023-02-19T01:52:34.325Z,24.27
2023-02-19T01:55:08.002Z,23.50
2023-02-19T01:57:43.497Z,24.07
2023-02-19T02:00:16.319Z,22.80
2023-02-19T02:02:52.256Z,22.23
2023-02-19T02:05:37.675Z,18.37
2023-02-19T02:08:24.930Z,20.98
2023-02-19T02:10:54.286Z,23.73
2023-02-19T02:13:22.371Z,25.57
2023-02-19T02:16:05.218Z,26.83
2023-02-19T02:18:51.503Z,26.07
2023-02-19T02:21:53.083Z,24.63
2023-02-19T02:25:04.289Z,24.13
2023-02-19T02:27:49.121Z,22.40
2023-02-19T02:30:32.416Z,24.53
2023-02-19T02:33:17.839Z,24.03
2023-02-19T02:35:51.410Z,22.80
2023-02-19T02:38:28.075Z,13.80
2023-02-19T02:40:57.314Z,22.87
2023-02-19T02:43:26.329Z,21.50
2023-02-19T02:45:56.613Z,23.17
2023-02-19T02:48:40.017Z,21.57
2023-02-19T02:51:17.588Z,19.83
2023-02-19T02:54:17.352Z,18.45
2023-02-19T02:56:48.870Z,18.23
2023-02-19T02:59:23.560Z,13.03
2023-02-19T03:02:11.061Z,11.93
2023-02-19T03:05:11.335Z,13.63
2023-02-19T03:07:45.775Z,12.33
2023-02-19T03:10:23.527Z,10.80
2023-02-19T03:13:14.536Z,11.67
2023-02-19T03:16:09.430Z,12.43
2023-02-19T03:19:01.922Z,13.50
2023-02-19T03:21:31.081Z,13.63
2023-02-19T03:24:17.770Z,14.27
2023-02-19T03:26:53.761Z,15.57
2023-02-19T03:29:27.906Z,14.83
2023-02-19T03:32:06.936Z,16.33
2023-02-19T03:34:43.026Z,17.23
2023-02-19T03:37:16.798Z,15.87
2023-02-19T03:39:45.712Z,14.47
2023-02-19T03:42:36.908Z,16.43
2023-02-19T03:45:32.693Z,14.87
2023-02-19T03:48:22.970Z,17.40
2023-02-19T03:51:12.877Z,10.57
2023-02-19T03:53:55.782Z,17.00
2023-02-19T03:56:33.874Z,11.30
2023-02-19T03:59:10.946Z,13.53
2023-02-19T04:01:47.132Z,13.80
2023-02-19T04:04:20.329Z,13.40
2023-02-19T04:06:55.320Z,15.27
2023-02-19T04:09:29.912Z,14.85
2023-02-19T04:12:07.241Z,14.87
2023-02-19T04:14:43.157Z,11.60
2023-02-19T04:17:20.031Z,13.70
2023-02-19T04:19:51.364Z,13.73
2023-02-19T04:22:22.987Z,14.47
2023-02-19T04:24:54.032Z,14.83
2023-02-19T04:27:21.965Z,14.20
2023-02-19T04:29:49.732Z,14.83
2023-02-19T04:32:17.717Z,14.77
2023-02-19T04:34:45.770Z,15.60
2023-02-19T04:37:13.694Z,15.03
2023-02-19T04:39:42.870Z,13.43
2023-02-19T04:42:11.170Z,14.60
2023-02-19T04:44:38.990Z,13.03
2023-02-19T04:47:06.852Z,14.50
2023-02-19T04:49:34.791Z,10.30
2023-02-19T04:52:02.638Z,13.20
2023-02-19T04:54:30.373Z,11.57
2023-02-19T04:56:59.536Z,13.57
2023-02-19T04:59:27.684Z,11.17
2023-02-19T05:01:57.416Z,13.87
2023-02-19T05:04:25.335Z,13.43
2023-02-19T05:06:53.170Z,12.13
2023-02-19T05:09:21.211Z,11.60
2023-02-19T05:11:48.998Z,13.03
2023-02-19T05:14:18.166Z,11.30
2023-02-19T05:16:46.172Z,11.83
2023-02-19T05:19:14.198Z,9.97
2023-02-19T05:21:42.150Z,10.23
2023-02-19T05:24:10.026Z,11.33
2023-02-19T05:26:37.908Z,9.67
2023-02-19T05:29:05.810Z,12.17
2023-02-19T05:31:35.143Z,11.70
2023-02-19T05:34:03.352Z,9.63
2023-02-19T05:36:32.052Z,8.97
2023-02-19T05:39:00.009Z,10.50
2023-02-19T05:41:30.146Z,12.23
2023-02-19T05:43:58.394Z,13.13
2023-02-19T05:46:32.227Z,13.10
2023-02-19T05:49:01.676Z,13.17
2023-02-19T05:51:29.504Z,12.03
2023-02-19T05:53:58.075Z,13.07
2023-02-19T05:56:33.828Z,12.67
2023-02-19T05:59:06.703Z,12.97
2023-02-19T06:01:35.624Z,12.90
2023-02-19T06:04:05.205Z,10.30
2023-02-19T06:06:33.232Z,12.90
2023-02-19T06:09:01.002Z,13.00
2023-02-19T06:11:30.000Z,13.33
2023-02-19T06:13:57.802Z,13.60
2023-02-19T06:16:25.687Z,9.00
2023-02-19T06:18:53.540Z,11.90
2023-02-19T06:21:22.796Z,10.83
2023-02-19T06:23:50.601Z,11.20
2023-02-19T06:26:22.225Z,10.13
2023-02-19T06:28:52.961Z,7.70
2023-02-19T06:31:23.082Z,11.50
2023-02-19T06:33:51.049Z,9.20
2023-02-19T06:36:22.600Z,9.17
2023-02-19T06:38:51.147Z,11.47
2023-02-19T06:41:19.365Z,11.13
2023-02-19T06:43:47.328Z,9.27
2023-02-19T06:46:15.224Z,9.00
2023-02-19T06:48:45.907Z,10.03
2023-02-19T06:51:23.733Z,7.70
2023-02-19T06:53:53.254Z,8.97
2023-02-19T06:56:25.903Z,10.90
2023-02-19T06:58:56.442Z,10.37
2023-02-19T07:01:24.547Z,10.10
2023-02-19T07:03:52.942Z,9.93
2023-02-19T07:06:22.157Z,9.13
2023-02-19T07:08:55.475Z,10.93
2023-02-19T07:11:24.783Z,9.50
2023-02-19T07:13:55.252Z,7.97
2023-02-19T07:16:24.357Z,11.40
2023-02-19T07:18:52.654Z,10.90
2023-02-19T07:21:20.420Z,11.10
2023-02-19T07:23:48.176Z,10.00
2023-02-19T07:26:19.578Z,11.07
2023-02-19T07:28:50.805Z,12.43
2023-02-19T07:31:22.470Z,11.93
2023-02-19T07:33:51.147Z,12.17
2023-02-19T07:36:20.501Z,12.33
2023-02-19T07:38:55.231Z,10.53
2023-02-19T07:41:25.914Z,11.68
2023-02-19T07:43:56.590Z,9.73
2023-02-19T07:46:24.898Z,11.03
2023-02-19T07:48:52.746Z,10.30
2023-02-19T07:51:21.100Z,3.47
2023-02-19T07:53:52.396Z,3.73
2023-02-19T07:56:21.069Z,4.03
2023-02-19T07:58:50.334Z,3.90
2023-02-19T08:01:40.354Z,4.50
2023-02-19T08:04:08.983Z,3.70
2023-02-19T08:06:36.828Z,3.53
2023-02-19T08:09:05.881Z,3.67
2023-02-19T08:11:52.542Z,2.90
2023-02-19T08:14:25.055Z,3.43
2023-02-19T08:16:54.023Z,3.23
2023-02-19T08:19:22.602Z,3.23
2023-02-19T08:21:50.644Z,3.93
2023-02-19T08:24:18.479Z,3.27
2023-02-19T08:26:46.311Z,3.60
2023-02-19T08:29:14.191Z,3.10
2023-02-19T08:31:43.458Z,4.10
2023-02-19T08:34:11.338Z,3.80
2023-02-19T08:36:39.195Z,3.30
2023-02-19T08:39:07.060Z,2.70
2023-02-19T08:41:34.885Z,3.30
2023-02-19T08:44:02.748Z,3.30
2023-02-19T08:46:31.105Z,3.80
2023-02-19T08:49:01.091Z,4.40
2023-02-19T08:51:28.873Z,3.20
2023-02-19T08:53:56.604Z,3.93
2023-02-19T08:56:24.489Z,3.70
2023-02-19T08:58:52.167Z,3.67
2023-02-19T09:01:20.111Z,3.43
2023-02-19T09:03:48.005Z,4.23
2023-02-19T09:06:20.414Z,2.93
2023-02-19T09:08:48.314Z,4.13
2023-02-19T09:11:16.307Z,4.00
2023-02-19T09:13:44.814Z,4.20
2023-02-19T09:16:13.168Z,2.20
2023-02-19T09:18:41.004Z,1.60
2023-02-19T09:21:09.129Z,2.40
2023-02-19T09:23:38.632Z,2.93
2023-02-19T09:26:09.900Z,3.90
2023-02-19T09:28:41.456Z,4.57
2023-02-19T09:31:12.563Z,4.83
2023-02-19T09:33:43.512Z,4.10
2023-02-19T09:36:12.543Z,5.20
2023-02-19T09:38:42.717Z,4.90
2023-02-19T09:41:22.402Z,4.00
2023-02-19T09:43:51.149Z,3.67
2023-02-19T09:46:30.410Z,3.60
2023-02-19T09:49:05.077Z,4.70
2023-02-19T09:51:37.776Z,5.03
2023-02-19T09:54:17.483Z,5.37
2023-02-19T09:56:45.576Z,4.70
2023-02-19T09:59:22.136Z,5.33
2023-02-19T10:01:57.627Z,4.83
2023-02-19T10:04:25.669Z,5.93
2023-02-19T10:06:58.988Z,5.70
2023-02-19T10:09:31.058Z,6.70
2023-02-19T10:12:00.301Z,5.60
2023-02-19T10:14:38.806Z,5.00
2023-02-19T10:17:20.828Z,5.67
2023-02-19T10:19:49.657Z,4.03
2023-02-19T10:22:18.346Z,5.97
2023-02-19T10:24:52.882Z,6.97
2023-02-19T10:27:20.909Z,6.90
2023-02-19T10:29:54.605Z,6.60
2023-02-19T10:32:25.634Z,5.37
2023-02-19T10:35:11.777Z,6.37
2023-02-19T10:40:17.738Z,5.67
2023-02-19T10:42:48.695Z,5.90
2023-02-19T10:45:22.629Z,5.80
2023-02-19T10:47:52.264Z,5.40
2023-02-19T10:50:29.742Z,5.03
2023-02-19T10:53:00.859Z,5.53
2023-02-19T10:55:37.519Z,6.60
2023-02-19T10:58:26.743Z,4.70
2023-02-19T11:01:13.452Z,4.90
2023-02-19T11:03:41.920Z,4.90
2023-02-19T11:06:13.145Z,4.20
2023-02-19T11:08:57.580Z,5.30
2023-02-19T11:11:34.038Z,5.77
2023-02-19T11:14:12.943Z,6.10
2023-02-19T11:16:45.286Z,3.53
2023-02-19T11:19:31.500Z,4.03
2023-02-19T11:22:01.530Z,4.90
2023-02-19T11:24:35.068Z,3.83
2023-02-19T11:27:16.123Z,5.80
2023-02-19T11:29:44.077Z,3.07
2023-02-19T11:32:29.596Z,3.70
2023-02-19T11:35:18.781Z,3.38
2023-02-19T11:37:59.169Z,2.97
2023-02-19T11:40:41.510Z,2.90
2023-02-19T11:43:44.662Z,3.90
2023-02-19T11:46:22.884Z,3.97
2023-02-19T11:49:03.917Z,2.93
2023-02-19T11:51:57.518Z,4.23
2023-02-19T11:54:51.017Z,3.03
2023-02-19T11:57:38.090Z,4.27
2023-02-19T12:00:24.829Z,4.03
2023-02-19T12:03:23.512Z,4.87
2023-02-19T12:06:18.452Z,4.90
2023-02-19T12:09:10.459Z,4.90
2023-02-19T12:12:04.240Z,5.17
2023-02-19T12:15:06.840Z,5.30
2023-02-19T12:17:57.681Z,6.00
2023-02-19T12:20:34.871Z,5.40
2023-02-19T12:23:37.095Z,5.43
2023-02-19T12:26:20.878Z,6.13
2023-02-19T12:29:15.592Z,5.83
2023-02-19T12:32:20.319Z,5.00
2023-02-19T12:35:25.988Z,5.87
2023-02-19T12:38:10.732Z,5.00
2023-02-19T12:40:57.974Z,4.57
2023-02-19T12:43:26.438Z,4.60
2023-02-19T12:46:00.431Z,4.93
2023-02-19T12:48:35.316Z,4.47
2023-02-19T12:51:11.940Z,4.03
2023-02-19T12:53:48.847Z,4.20
2023-02-19T12:56:24.950Z,4.40
2023-02-19T12:59:02.125Z,4.00
2023-02-19T13:01:41.613Z,3.53
2023-02-19T13:04:29.838Z,4.07
2023-02-19T13:07:05.937Z,3.90
2023-02-19T13:09:39.674Z,3.90
2023-02-19T13:12:14.084Z,4.13
2023-02-19T13:14:46.419Z,3.30
2023-02-19T13:17:26.857Z,3.10
2023-02-19T13:20:07.847Z,3.23
2023-02-19T13:23:04.631Z,2.60
2023-02-19T13:25:50.548Z,3.30
2023-02-19T13:28:42.087Z,2.80
2023-02-19T13:31:41.749Z,2.93
2023-02-19T13:34:24.786Z,2.80
2023-02-19T13:36:54.509Z,2.70
2023-02-19T13:39:23.954Z,3.00
2023-02-19T13:41:55.690Z,3.10
2023-02-19T13:44:28.614Z,2.80
2023-02-19T13:46:57.370Z,2.90
2023-02-19T13:49:48.937Z,3.53
2023-02-19T13:52:40.729Z,2.97
2023-02-19T13:55:53.104Z,2.60
2023-02-19T13:58:54.525Z,2.50
2023-02-19T14:02:26.625Z,2.70
2023-02-19T14:05:00.292Z,2.40
2023-02-19T14:07:58.001Z,2.57
2023-02-19T14:10:57.568Z,2.00
2023-02-19T14:13:56.257Z,2.30
2023-02-19T14:16:47.924Z,2.30
2023-02-19T14:19:50.121Z,2.23
2023-02-19T14:23:04.274Z,2.10
2023-02-19T14:25:47.869Z,1.90
2023-02-19T14:28:36.413Z,2.40
2023-02-19T14:31:29.067Z,2.20
2023-02-19T14:34:01.456Z,2.27
2023-02-19T14:36:39.711Z,2.40
2023-02-19T14:39:16.984Z,3.20
2023-02-19T14:41:49.674Z,3.67
2023-02-19T14:44:23.374Z,3.07
2023-02-19T14:46:59.425Z,4.20
2023-02-19T14:49:36.845Z,2.67
2023-02-19T14:52:15.069Z,3.23
2023-02-19T14:54:50.847Z,2.50
2023-02-19T14:57:27.079Z,3.00
2023-02-19T15:00:00.712Z,2.60
2023-02-19T15:02:32.068Z,2.60
2023-02-19T15:05:00.283Z,2.70
2023-02-19T15:07:33.871Z,2.63
2023-02-19T15:10:06.015Z,2.93
2023-02-19T15:12:45.825Z,2.60
2023-02-19T15:15:23.916Z,2.50
2023-02-19T15:17:54.237Z,2.53
2023-02-19T15:20:26.406Z,2.77
2023-02-19T15:22:59.674Z,2.93
2023-02-19T15:25:34.717Z,2.80
2023-02-19T15:28:28.764Z,2.75
2023-02-19T15:31:12.163Z,2.70
2023-02-19T15:33:48.465Z,2.73
2023-02-19T15:36:24.783Z,2.60
2023-02-19T15:38:57.325Z,2.63
2023-02-19T15:41:30.149Z,3.00
2023-02-19T15:44:15.065Z,2.77
2023-02-19T15:46:46.158Z,2.80
2023-02-19T15:49:19.503Z,2.53
2023-02-19T15:51:54.845Z,2.90
2023-02-19T15:54:30.882Z,3.20
2023-02-19T15:57:06.888Z,2.60
2023-02-19T15:59:44.265Z,2.70
2023-02-19T16:02:14.589Z,3.57
2023-02-19T16:04:45.525Z,2.97
2023-02-19T16:07:26.472Z,3.00
2023-02-19T16:10:21.686Z,3.07
2023-02-19T16:12:58.070Z,4.00
2023-02-19T16:15:28.183Z,2.90
2023-02-19T16:17:57.747Z,3.13
2023-02-19T16:20:29.975Z,3.10
2023-02-19T16:23:03.894Z,3.23
2023-02-19T16:25:41.924Z,3.13
2023-02-19T16:28:13.133Z,4.10
2023-02-19T16:30:42.172Z,4.47
2023-02-19T16:33:36.138Z,4.13
2023-02-19T16:36:39.212Z,4.17
2023-02-19T16:39:20.083Z,4.20
2023-02-19T16:42:16.810Z,4.07
2023-02-19T16:44:48.658Z,4.97
2023-02-19T16:47:29.391Z,4.50
2023-02-19T16:50:00.552Z,4.10
2023-02-19T16:52:29.497Z,4.07
2023-02-19T16:54:57.399Z,4.50
2023-02-19T16:57:26.796Z,4.43
2023-02-19T16:59:54.562Z,4.77
2023-02-19T17:02:24.950Z,4.90
2023-02-19T17:04:55.194Z,4.80
2023-02-19T17:07:23.684Z,5.40
2023-02-19T17:09:51.468Z,5.40
2023-02-19T17:12:20.164Z,5.80
2023-02-19T17:14:49.434Z,5.70
2023-02-19T17:17:17.224Z,5.73
2023-02-19T17:19:45.057Z,6.10
2023-02-19T17:22:16.765Z,6.20
2023-02-19T17:24:46.014Z,6.40
2023-02-19T17:27:14.423Z,6.63
2023-02-19T17:29:44.184Z,6.23
2023-02-19T17:32:14.536Z,6.70
2023-02-19T17:34:42.531Z,6.03
2023-02-19T17:37:10.298Z,6.53
2023-02-19T17:39:38.116Z,6.03
2023-02-19T17:42:06.050Z,6.93
2023-02-19T17:44:33.883Z,7.10
2023-02-19T17:47:01.901Z,6.50
2023-02-19T17:49:31.113Z,7.07
2023-02-19T17:51:59.581Z,7.33
2023-02-19T17:54:27.746Z,7.87
2023-02-19T17:56:55.617Z,14.97
2023-02-19T17:59:23.792Z,8.67
2023-02-19T18:01:51.762Z,7.43
2023-02-19T18:04:19.916Z,9.20
2023-02-19T18:06:49.404Z,8.90
2023-02-19T18:09:19.330Z,9.53
2023-02-19T18:11:47.371Z,11.33
2023-02-19T18:14:15.355Z,8.20
2023-02-19T18:16:49.689Z,7.53
2023-02-19T18:19:18.413Z,12.48
2023-02-19T18:21:46.319Z,8.27
2023-02-19T18:24:15.476Z,10.93
2023-02-19T18:26:43.580Z,9.20
2023-02-19T18:29:11.535Z,11.10
2023-02-19T18:31:39.472Z,11.70
2023-02-19T18:34:17.589Z,24.60
2023-02-19T18:36:46.039Z,29.10
2023-02-19T18:39:15.977Z,9.93
2023-02-19T18:41:47.899Z,9.53
2023-02-19T18:44:18.708Z,7.53
2023-02-19T18:46:46.813Z,9.03
2023-02-19T18:49:15.255Z,10.20
2023-02-19T18:51:44.079Z,7.10
2023-02-19T18:54:11.863Z,7.90
2023-02-19T18:56:46.247Z,6.33
2023-02-19T18:59:14.172Z,6.40
2023-02-19T19:01:42.555Z,6.10
2023-02-19T19:04:10.616Z,6.00
2023-02-19T19:06:38.533Z,5.63
2023-02-19T19:09:06.617Z,6.27
2023-02-19T19:11:35.422Z,4.80
2023-02-19T19:14:04.778Z,4.20
2023-02-19T19:16:32.580Z,5.27
2023-02-19T19:19:00.585Z,3.87
2023-02-19T19:21:28.606Z,3.10
2023-02-19T19:23:56.395Z,2.60
2023-02-19T19:26:24.276Z,2.90
2023-02-19T19:28:52.090Z,3.13
2023-02-19T19:31:22.849Z,3.03
2023-02-19T19:33:51.182Z,3.40
2023-02-19T19:36:22.047Z,3.43
2023-02-19T19:38:49.837Z,3.53
2023-02-19T19:41:20.076Z,3.97
2023-02-19T19:43:48.395Z,4.20
2023-02-19T19:46:19.734Z,3.80
2023-02-19T19:48:52.848Z,4.50
2023-02-19T19:51:20.863Z,4.80
2023-02-19T19:53:50.363Z,4.70
2023-02-19T19:56:18.588Z,4.60
2023-02-19T19:58:48.102Z,4.43
2023-02-19T20:01:20.813Z,4.50
2023-02-19T20:03:53.446Z,4.77
2023-02-19T20:06:27.492Z,4.30
2023-02-19T20:08:55.358Z,4.30
2023-02-19T20:11:23.648Z,4.30
2023-02-19T20:13:51.714Z,3.77
2023-02-19T20:16:25.074Z,4.60
2023-02-19T20:18:54.644Z,4.83
2023-02-19T20:21:22.498Z,8.63
2023-02-19T20:23:50.399Z,10.47
2023-02-19T20:26:24.316Z,5.33
2023-02-19T20:28:52.571Z,5.00
2023-02-19T20:31:20.844Z,5.77
2023-02-19T20:33:51.051Z,5.27
2023-02-19T20:36:20.672Z,5.73
2023-02-19T20:38:49.917Z,4.80
2023-02-19T20:41:17.618Z,5.27
2023-02-19T20:43:45.358Z,4.47
2023-02-19T20:46:13.558Z,4.70
2023-02-19T20:48:41.643Z,4.80
2023-02-19T20:51:09.571Z,4.23
2023-02-19T20:53:40.702Z,4.20
2023-02-19T20:56:08.812Z,4.27
2023-02-19T20:58:37.050Z,4.43
2023-02-19T21:01:05.400Z,5.00
2023-02-19T21:03:33.316Z,4.77
2023-02-19T21:06:01.028Z,5.27
2023-02-19T21:08:28.848Z,5.00
2023-02-19T21:10:58.014Z,4.70
2023-02-19T21:13:25.800Z,5.83
2023-02-19T21:15:53.634Z,5.43
2023-02-19T21:18:21.820Z,5.37
2023-02-19T21:20:49.682Z,6.90
2023-02-19T21:23:17.591Z,5.53
2023-02-19T21:25:45.634Z,5.73
2023-02-19T21:28:14.871Z,5.60
2023-02-19T21:30:42.695Z,5.50
2023-02-19T21:33:10.504Z,6.57
2023-02-19T21:35:38.261Z,4.93
2023-02-19T21:38:06.099Z,5.17
2023-02-19T21:40:34.124Z,4.77
2023-02-19T21:43:02.021Z,5.47
2023-02-19T21:45:31.149Z,5.27
2023-02-19T21:47:59.047Z,5.20
2023-02-19T21:50:26.872Z,5.37
2023-02-19T21:52:55.192Z,5.30
2023-02-19T21:55:23.139Z,4.50
2023-02-19T21:57:50.873Z,5.30
2023-02-19T22:00:19.423Z,4.53
2023-02-19T22:02:48.755Z,4.50
2023-02-19T22:05:16.774Z,4.83
2023-02-19T22:07:44.663Z,4.87
2023-02-19T22:10:13.422Z,4.83
2023-02-19T22:12:41.206Z,4.87
2023-02-19T22:15:08.967Z,4.67
2023-02-19T22:17:36.816Z,4.93
2023-02-19T22:20:07.683Z,5.03
2023-02-19T22:22:35.450Z,5.63
2023-02-19T22:25:03.287Z,5.73
2023-02-19T22:27:31.338Z,5.27
2023-02-19T22:29:59.588Z,5.57
2023-02-19T22:32:27.738Z,5.57
2023-02-19T22:34:55.627Z,5.90
2023-02-19T22:37:24.764Z,5.97
2023-02-19T22:39:52.923Z,7.10
2023-02-19T22:42:21.025Z,7.57
2023-02-19T22:44:48.960Z,7.30
2023-02-19T22:47:19.065Z,8.10
2023-02-19T22:49:47.044Z,7.73
2023-02-19T22:52:15.045Z,8.13
2023-02-19T22:54:44.217Z,7.90
2023-02-19T22:57:12.024Z,9.00
2023-02-19T22:59:39.845Z,8.90
2023-02-19T23:02:07.700Z,9.63
2023-02-19T23:04:35.637Z,9.83
2023-02-19T23:07:05.226Z,10.77
2023-02-19T23:09:33.182Z,11.93
2023-02-19T23:12:04.939Z,12.67
2023-02-19T23:14:33.148Z,12.20
2023-02-19T23:17:01.108Z,12.50
2023-02-19T23:19:29.329Z,10.13
2023-02-19T23:21:57.356Z,10.43
2023-02-19T23:24:25.252Z,13.23
2023-02-19T23:26:53.922Z,12.33
2023-02-19T23:29:26.430Z,12.67
2023-02-19T23:31:55.137Z,11.97
2023-02-19T23:34:24.233Z,12.40
2023-02-19T23:36:52.366Z,11.83
2023-02-19T23:39:21.764Z,12.40
2023-02-19T23:41:54.110Z,12.83
2023-02-19T23:44:25.590Z,12.50
2023-02-19T23:46:53.569Z,11.40
2023-02-19T23:49:21.673Z,11.40
2023-02-19T23:51:49.581Z,11.57
2023-02-19T23:54:17.431Z,10.60
2023-02-19T23:56:45.300Z,10.73
2023-02-19T23:59:13.273Z,11.63
